Time;durP1;ratioP1;P1;durP2;ratioP2;P2;SDS_P1;SDS_P2;PMS_P1;PMS_P2;Temp;Humidity;BMP_temperature;BMP_pressure;BME280_temperature;BME280_humidity;BME280_pressure;Samples;Min_cycle;Max_cycle;Signal;HPM_P1;HPM_P2
2021/12/08 00:00:24;;;;;;;9.20;5.27;;;;;;;4.47;100.00;60225.66;5069072;28;20082;-67
2021/12/08 00:02:49;;;;;;;11.00;5.20;;;;;;;4.45;100.00;60213.44;5069396;28;20051;-67
2021/12/08 00:05:18;;;;;;;10.20;5.50;;;;;;;4.51;100.00;60227.34;5069021;28;20266;-67
2021/12/08 00:07:45;;;;;;;9.03;5.10;;;;;;;4.52;100.00;60228.38;5068905;28;20255;-67
2021/12/08 00:15:26;;;;;;;11.47;5.57;;;;;;;4.57;100.00;60230.63;5068700;28;20272;-67
2021/12/08 00:17:52;;;;;;;18.47;5.53;;;;;;;4.67;100.00;60240.63;5069103;28;20745;-67
2021/12/08 00:20:18;;;;;;;13.30;5.03;;;;;;;4.70;100.00;60243.78;5068556;28;20120;-67
2021/12/08 00:22:43;;;;;;;15.27;5.83;;;;;;;4.81;100.00;60255.38;5069061;28;20049;-67
2021/12/08 00:25:09;;;;;;;14.30;6.07;;;;;;;4.83;100.00;60259.47;5068541;28;20294;-67
2021/12/08 00:27:34;;;;;;;10.10;5.60;;;;;;;4.84;100.00;60261.06;5069356;28;20098;-67
2021/12/08 00:30:00;;;;;;;11.07;5.63;;;;;;;4.87;100.00;60266.75;5069014;28;20071;-67
2021/12/08 00:32:28;;;;;;;10.50;5.90;;;;;;;4.83;100.00;60259.47;5068427;28;20067;-67
2021/12/08 00:34:54;;;;;;;13.83;6.07;;;;;;;4.76;100.00;60252.66;5068437;28;20044;-67
2021/12/08 00:37:20;;;;;;;11.47;5.67;;;;;;;4.78;100.00;60257.28;5068579;28;20288;-67
2021/12/08 00:39:46;;;;;;;10.83;5.37;;;;;;;4.75;100.00;60251.06;5068512;28;20627;-67
2021/12/08 00:42:12;;;;;;;10.83;5.30;;;;;;;4.71;100.00;60242.84;5068340;28;20273;-67
2021/12/08 00:44:37;;;;;;;12.83;4.90;;;;;;;4.76;100.00;60249.56;5068757;28;20039;-67
2021/12/08 00:47:04;;;;;;;10.63;4.53;;;;;;;4.71;100.00;60242.84;5068393;28;20040;-67
2021/12/08 00:49:30;;;;;;;8.33;4.87;;;;;;;4.74;100.00;60248.00;5068059;28;20044;-67
2021/12/08 00:51:56;;;;;;;9.20;5.23;;;;;;;4.76;100.00;60252.66;5068188;28;20302;-67
2021/12/08 00:54:21;;;;;;;10.83;4.57;;;;;;;4.78;100.00;60254.22;5068008;28;20301;-67
2021/12/08 00:56:46;;;;;;;14.43;4.90;;;;;;;4.83;100.00;60257.50;5067044;28;20037;-68
2021/12/08 00:59:12;;;;;;;9.30;4.47;;;;;;;4.87;100.00;60266.75;5068016;28;20090;-69
2021/12/08 01:01:38;;;;;;;10.53;4.27;;;;;;;4.89;100.00;60268.34;5068781;28;20502;-67
2021/12/08 01:04:04;;;;;;;6.80;3.60;;;;;;;4.88;100.00;60265.28;5067865;28;20048;-67
2021/12/08 01:06:30;;;;;;;6.20;3.67;;;;;;;4.97;100.00;60274.25;5068135;28;21028;-67
2021/12/08 01:08:55;;;;;;;10.33;4.20;;;;;;;5.06;100.00;60280.69;5068123;28;20268;-67
2021/12/08 01:11:21;;;;;;;7.20;4.00;;;;;;;5.09;100.00;60283.84;5067807;28;20476;-67
2021/12/08 01:13:48;;;;;;;6.17;4.00;;;;;;;5.17;100.00;60297.34;5067817;28;20097;-68
2021/12/08 01:16:14;;;;;;;9.93;4.00;;;;;;;5.16;100.00;60293.75;5067971;28;20285;-67
2021/12/08 01:18:41;;;;;;;7.97;4.07;;;;;;;5.20;100.00;60297.97;5067662;28;20285;-67
2021/12/08 01:21:08;;;;;;;9.00;3.90;;;;;;;5.28;100.00;60302.81;5067755;28;20232;-67
2021/12/08 01:23:35;;;;;;;5.40;3.77;;;;;;;5.31;100.00;60309.03;5067001;28;20312;-67
2021/12/08 01:26:01;;;;;;;11.13;3.77;;;;;;;5.34;100.00;60309.66;5067347;28;20285;-67
2021/12/08 01:28:27;;;;;;;8.27;3.90;;;;;;;5.39;100.00;60314.44;5067608;28;20277;-67
2021/12/08 01:30:54;;;;;;;9.00;3.23;;;;;;;5.41;100.00;60319.59;5067648;28;20132;-68
2021/12/08 01:33:21;;;;;;;5.33;3.97;;;;;;;5.41;100.00;60316.53;5067560;28;20270;-68
2021/12/08 01:35:46;;;;;;;6.73;3.60;;;;;;;5.44;100.00;60319.69;5067786;28;20874;-67
2021/12/08 01:38:12;;;;;;;8.23;3.33;;;;;;;5.50;100.00;60326.03;5067144;28;20293;-67
2021/12/08 01:40:39;;;;;;;6.47;3.37;;;;;;;5.51;100.00;60327.06;5067355;28;20037;-67
2021/12/08 01:43:11;;;;;;;9.80;4.03;;;;;;;5.54;100.00;60329.72;5067478;28;20056;-68
2021/12/08 01:48:21;;;;;;;5.40;3.40;;;;;;;5.56;100.00;60334.91;5067405;28;20327;-67
2021/12/08 01:50:50;;;;;;;5.03;3.70;;;;;;;5.57;100.00;60333.41;5067150;28;20277;-67
2021/12/08 01:53:17;;;;;;;7.03;4.17;;;;;;;5.60;100.00;60341.63;5067234;28;20412;-67
2021/12/08 01:55:43;;;;;;;6.17;4.47;;;;;;;5.58;100.00;60329.41;5067099;28;20289;-67
2021/12/08 01:58:10;;;;;;;10.37;4.43;;;;;;;5.63;100.00;60341.75;5066715;28;20281;-66
2021/12/08 02:00:37;;;;;;;11.10;4.47;;;;;;;5.54;100.00;60327.72;5067278;28;20114;-67
2021/12/08 02:03:03;;;;;;;7.63;4.60;;;;;;;5.56;100.00;60331.81;5067241;28;20368;-67
2021/12/08 02:05:28;;;;;;;12.57;5.07;;;;;;;5.58;100.00;60339.00;5066014;28;20916;-67
2021/12/08 02:07:54;;;;;;;9.40;4.97;;;;;;;5.60;100.00;60338.56;5066857;28;20040;-67
2021/12/08 02:10:20;;;;;;;16.70;5.20;;;;;;;5.59;100.00;60335.53;5066840;28;20047;-67
2021/12/08 02:12:47;;;;;;;11.57;4.67;;;;;;;5.59;100.00;60337.50;5066952;28;20745;-67
2021/12/08 02:15:16;;;;;;;7.77;4.23;;;;;;;5.59;100.00;60340.59;5066710;28;20299;-67
2021/12/08 02:17:42;;;;;;;14.23;4.00;;;;;;;5.59;100.00;60335.53;5066772;28;20261;-67
2021/12/08 02:20:10;;;;;;;8.93;3.83;;;;;;;5.62;100.00;60338.16;5066900;28;20262;-68
2021/12/08 02:22:36;;;;;;;12.97;4.17;;;;;;;5.64;100.00;60340.28;5066636;28;20041;-68
2021/12/08 02:25:04;;;;;;;7.37;3.67;;;;;;;5.63;100.00;60344.28;5067499;28;20280;-67
2021/12/08 02:27:32;;;;;;;9.37;3.60;;;;;;;5.66;100.00;60339.31;5066471;28;20289;-67
2021/12/08 02:30:06;;;;;;;8.57;3.67;;;;;;;5.62;100.00;60333.09;5067007;28;20269;-67
2021/12/08 02:48:55;;;;;;;7.80;3.00;;;;;;;5.79;100.00;60357.56;5070829;28;20265;-67
2021/12/08 02:51:21;;;;;;;10.27;3.30;;;;;;;5.81;100.00;60359.69;5070082;28;20281;-67
2021/12/08 02:53:47;;;;;;;7.30;2.97;;;;;;;5.79;100.00;60358.09;5070369;28;20048;-67
2021/12/08 02:56:15;;;;;;;12.57;3.70;;;;;;;5.80;100.00;60356.09;5069619;28;20044;-67
2021/12/08 02:58:40;;;;;;;8.87;3.37;;;;;;;5.81;100.00;60354.59;5069042;28;20285;-67
2021/12/08 03:01:10;;;;;;;13.00;3.00;;;;;;;5.79;100.00;60357.56;5070557;28;20269;-67
2021/12/08 03:03:36;;;;;;;8.60;3.57;;;;;;;5.82;100.00;60358.19;5070263;28;20037;-67
2021/12/08 03:06:02;;;;;;;10.30;3.80;;;;;;;5.82;100.00;60360.72;5070907;28;20295;-67
2021/12/08 03:08:28;;;;;;;12.43;3.07;;;;;;;5.79;100.00;60352.50;5070168;28;20045;-67
2021/12/08 03:10:54;;;;;;;14.87;3.50;;;;;;;5.83;100.00;60362.31;5070367;28;20322;-67
2021/12/08 03:13:37;;;;;;;11.10;2.80;;;;;;;5.81;100.00;60354.59;5069893;28;20047;-67
2021/12/08 03:16:03;;;;;;;7.47;2.20;;;;;;;5.75;100.00;60351.88;5070146;28;20052;-67
2021/12/08 03:18:34;;;;;;;9.83;2.60;;;;;;;5.78;100.00;60357.03;5069588;28;20288;-67
2021/12/08 03:21:01;;;;;;;13.90;2.30;;;;;;;5.77;100.00;60351.44;5070279;28;20474;-67
2021/12/08 03:23:33;;;;;;;14.07;2.70;;;;;;;5.83;100.00;60359.78;5069672;28;20669;-67
2021/12/08 03:26:01;;;;;;;8.43;2.70;;;;;;;5.84;100.00;60360.84;5069856;28;20289;-67
2021/12/08 03:28:31;;;;;;;10.00;2.60;;;;;;;5.84;100.00;60360.84;5069756;28;20335;-67
2021/12/08 03:31:15;;;;;;;13.60;2.83;;;;;;;5.79;100.00;60355.56;5069579;28;20270;-67
2021/12/08 03:33:42;;;;;;;12.23;2.90;;;;;;;5.78;100.00;60354.50;5050032;28;20775;-67
2021/12/08 03:36:07;;;;;;;11.17;2.50;;;;;;;5.77;100.00;60361.56;5049733;28;20282;-67
2021/12/08 03:38:33;;;;;;;13.80;2.87;;;;;;;5.72;100.00;60348.72;5049745;28;20278;-67
2021/12/08 03:41:00;;;;;;;10.30;2.63;;;;;;;5.75;100.00;60356.41;5049886;28;20627;-67
2021/12/08 03:43:26;;;;;;;9.53;1.87;;;;;;;5.69;100.00;60345.53;5049685;28;20086;-67
2021/12/08 03:45:53;;;;;;;11.17;2.33;;;;;;;5.71;100.00;60347.66;5049376;28;20270;-68
2021/12/08 03:48:26;;;;;;;7.93;1.97;;;;;;;5.71;100.00;60344.59;5049526;28;20270;-67
2021/12/08 03:50:52;;;;;;;6.20;2.10;;;;;;;5.66;100.00;60339.84;5049790;28;20297;-67
2021/12/08 03:53:18;;;;;;;9.73;2.13;;;;;;;5.60;100.00;60336.56;5049528;28;20265;-67
2021/12/08 03:55:46;;;;;;;9.20;2.10;;;;;;;5.56;100.00;60334.34;5049235;28;20805;-67
2021/12/08 03:58:13;;;;;;;8.37;2.07;;;;;;;5.57;100.00;60338.47;5049192;28;20110;-67
2021/12/08 04:00:40;;;;;;;9.57;2.43;;;;;;;5.54;100.00;60332.78;5049440;28;20296;-67
2021/12/08 04:03:07;;;;;;;9.00;2.00;;;;;;;5.55;100.00;60331.31;5049125;28;20262;-67
2021/12/08 04:05:46;;;;;;;12.07;2.83;;;;;;;5.62;100.00;60335.09;5048582;28;20328;-68
2021/12/08 04:08:28;;;;;;;7.67;1.90;;;;;;;5.62;100.00;60337.63;5049294;28;20721;-67
2021/12/08 04:10:54;;;;;;;11.20;2.30;;;;;;;5.62;100.00;60337.63;5049303;28;20353;-67
2021/12/08 04:13:26;;;;;;;8.87;2.10;;;;;;;5.58;100.00;60334.47;5048861;28;20270;-67
2021/12/08 04:15:52;;;;;;;7.70;2.20;;;;;;;5.61;100.00;60334.56;5048906;28;20262;-67
2021/12/08 04:18:18;;;;;;;10.97;2.70;;;;;;;5.58;100.00;60333.94;5048541;28;20263;-67
2021/12/08 04:20:48;;;;;;;10.70;2.00;;;;;;;5.48;100.00;60323.41;5048987;28;20136;-67
2021/12/08 04:23:16;;;;;;;7.57;2.67;;;;;;;5.40;100.00;60321.06;5048684;28;20039;-67
2021/12/08 04:25:45;;;;;;;14.73;3.20;;;;;;;5.41;100.00;60319.59;5048745;28;20270;-67
2021/12/08 04:28:20;;;;;;;8.00;1.77;;;;;;;5.39;100.00;60316.97;5048624;28;20261;-67
2021/12/08 04:30:54;;;;;;;7.00;1.75;;;;;;;5.36;100.00;60308.72;5048758;28;20270;-67
2021/12/08 04:33:20;;;;;;;6.67;1.60;;;;;;;5.34;100.00;60309.16;5048331;28;20073;-67
2021/12/08 04:35:47;;;;;;;16.27;2.10;;;;;;;5.38;100.00;60318.44;5048450;28;20266;-67
2021/12/08 04:38:24;;;;;;;10.30;1.97;;;;;;;5.34;100.00;60312.19;5048723;28;20112;-67
2021/12/08 04:43:28;;;;;;;10.33;1.77;;;;;;;5.31;100.00;60306.00;5048293;28;20264;-67
2021/12/08 04:49:36;;;;;;;7.70;2.47;;;;;;;5.29;100.00;60306.41;5048143;28;20277;-67
2021/12/08 04:52:03;;;;;;;11.37;2.20;;;;;;;5.30;100.00;60305.47;5047893;28;20270;-67
2021/12/08 05:03:20;;;;;;;8.83;1.37;;;;;;;5.22;100.00;60297.53;5048281;28;20274;-67
2021/12/08 05:06:16;;;;;;;5.93;1.47;;;;;;;5.15;100.00;60289.63;5047953;28;20282;-67
2021/12/08 05:08:42;;;;;;;7.63;1.60;;;;;;;5.10;100.00;60287.44;5048570;28;20281;-67
2021/12/08 05:11:14;;;;;;;9.87;1.80;;;;;;;5.02;100.00;60279.53;5048167;28;20045;-67
2021/12/08 05:13:42;;;;;;;12.07;1.50;;;;;;;4.99;100.00;60273.81;5047809;28;20068;-67
2021/12/08 05:16:08;;;;;;;5.50;1.60;;;;;;;4.96;100.00;60273.19;5047965;28;20301;-67
2021/12/08 05:18:39;;;;;;;7.70;1.47;;;;;;;4.96;100.00;60270.13;5047054;28;20325;-67
2021/12/08 05:21:10;;;;;;;9.07;1.37;;;;;;;4.87;100.00;60261.19;5047903;28;20793;-67
2021/12/08 05:23:48;;;;;;;7.17;1.40;;;;;;;4.81;100.00;60255.38;5046097;28;20361;-67
2021/12/08 05:26:36;;;;;;;6.90;1.13;;;;;;;4.79;100.00;60250.22;5049073;28;20280;-67
2021/12/08 05:29:19;;;;;;;9.90;1.63;;;;;;;4.76;100.00;60244.53;5047190;28;20270;-67
2021/12/08 05:31:45;;;;;;;5.57;1.03;;;;;;;4.72;100.00;60248.44;5058009;28;20270;-67
2021/12/08 05:34:11;;;;;;;5.83;1.30;;;;;;;4.70;100.00;60243.78;5047013;28;20308;-67
2021/12/08 05:36:38;;;;;;;7.00;1.70;;;;;;;4.65;100.00;60244.09;5049139;28;20673;-67
2021/12/08 05:39:07;;;;;;;7.20;1.30;;;;;;;4.62;100.00;60238.41;5049861;28;20417;-67
2021/12/08 05:41:38;;;;;;;11.47;1.47;;;;;;;4.54;100.00;60232.50;5045411;28;20774;-67
2021/12/08 05:44:04;;;;;;;7.17;1.40;;;;;;;4.49;100.00;60225.22;5047723;28;20266;-67
2021/12/08 05:46:32;;;;;;;6.37;0.93;;;;;;;4.47;100.00;60215.56;5047190;28;20324;-67
2021/12/08 05:48:58;;;;;;;9.13;1.47;;;;;;;4.40;100.00;60213.22;5047404;28;20278;-68
2021/12/08 05:51:31;;;;;;;7.73;1.17;;;;;;;4.44;100.00;60216.91;5046788;28;20301;-67
2021/12/08 05:54:01;;;;;;;9.50;1.27;;;;;;;4.34;100.00;60206.91;5047511;28;20044;-67
2021/12/08 05:56:28;;;;;;;18.83;3.37;;;;;;;4.36;100.00;60211.53;5047002;28;20324;-67
2021/12/08 05:58:56;;;;;;;6.03;1.40;;;;;;;4.41;100.00;60213.75;5047316;28;20631;-67
2021/12/08 06:01:27;;;;;;;10.27;1.10;;;;;;;4.32;100.00;60207.31;5046927;28;20306;-67
2021/12/08 06:03:53;;;;;;;9.70;1.10;;;;;;;4.23;100.00;60197.84;5045258;28;20290;-67
2021/12/08 06:06:21;;;;;;;5.53;1.13;;;;;;;4.24;100.00;60198.91;5046756;28;20300;-68
2021/12/08 06:08:47;;;;;;;10.20;1.37;;;;;;;4.18;100.00;60193.09;5046989;28;20060;-67
2021/12/08 06:11:14;;;;;;;14.67;1.73;;;;;;;4.14;100.00;60189.41;5046265;28;20808;-70
2021/12/08 06:13:42;;;;;;;10.87;1.17;;;;;;;4.16;100.00;60186.47;5046512;28;20281;-69
2021/12/08 06:16:10;;;;;;;9.33;1.37;;;;;;;4.08;100.00;60183.09;5051821;28;20278;-70
2021/12/08 06:18:39;;;;;;;11.63;1.60;;;;;;;4.07;100.00;60184.03;5066387;28;20839;-69
2021/12/08 06:21:16;;;;;;;6.03;1.47;;;;;;;4.08;100.00;60180.56;5066926;28;20308;-69
2021/12/08 06:23:46;;;;;;;15.17;1.93;;;;;;;4.06;100.00;60183.53;5066982;28;20280;-67
2021/12/08 06:26:14;;;;;;;10.70;1.87;;;;;;;4.04;100.00;60175.84;5065282;28;20281;-67
2021/12/08 06:28:39;;;;;;;14.17;1.87;;;;;;;4.02;100.00;60174.78;5066602;28;20332;-67
2021/12/08 06:31:07;;;;;;;15.80;1.60;;;;;;;4.06;100.00;60178.47;5066988;28;20292;-67
2021/12/08 06:33:33;;;;;;;15.27;1.73;;;;;;;4.10;100.00;60185.19;5066455;28;20124;-67
2021/12/08 06:36:05;;;;;;;13.13;1.37;;;;;;;4.09;100.00;60179.09;5066715;28;20288;-67
2021/12/08 06:38:32;;;;;;;13.87;1.40;;;;;;;4.01;100.00;60170.66;5056843;28;20290;-67
2021/12/08 06:41:12;;;;;;;9.37;1.53;;;;;;;4.05;100.00;60179.41;5057498;28;20343;-67
2021/12/08 06:43:43;;;;;;;14.70;1.37;;;;;;;4.07;100.00;60177.00;5066158;28;20360;-67
2021/12/08 06:46:09;;;;;;;9.77;1.53;;;;;;;3.98;100.00;60170.03;5064171;28;20886;-67
2021/12/08 06:48:40;;;;;;;8.77;2.10;;;;;;;4.01;100.00;60173.19;5066122;28;20375;-67
2021/12/08 06:51:13;;;;;;;15.77;2.17;;;;;;;3.95;100.00;60167.41;5065479;28;20270;-67
2021/12/08 06:53:40;;;;;;;8.37;1.33;;;;;;;3.93;100.00;60170.34;5065822;28;20762;-67
2021/12/08 06:56:15;;;;;;;5.77;0.90;;;;;;;3.92;100.00;60161.72;5066449;28;20269;-67
2021/12/08 06:58:46;;;;;;;16.80;1.63;;;;;;;3.84;100.00;60158.88;5059414;28;20825;-67
2021/12/08 07:01:55;;;;;;;10.23;1.73;;;;;;;3.86;100.00;60157.94;5065677;28;20052;-68
2021/12/08 07:04:57;;;;;;;15.30;2.07;;;;;;;3.80;100.00;60159.19;5066172;28;20284;-67
2021/12/08 07:07:28;;;;;;;8.90;1.57;;;;;;;3.79;100.00;60151.09;5064023;28;20344;-70
2021/12/08 07:10:10;;;;;;;13.60;1.67;;;;;;;3.81;100.00;60155.72;5064892;28;20278;-70
2021/12/08 07:12:42;;;;;;;26.43;2.30;;;;;;;3.87;100.00;60161.50;5065435;28;20277;-70
2021/12/08 07:15:32;;;;;;;7.40;1.43;;;;;;;3.86;100.00;60162.97;5063573;28;20312;-69
2021/12/08 07:18:03;;;;;;;8.10;1.17;;;;;;;3.98;100.00;60168.03;5064838;28;20257;-69
2021/12/08 07:20:43;;;;;;;5.93;1.10;;;;;;;4.02;100.00;60174.78;5065800;28;20274;-70
2021/12/08 07:23:13;;;;;;;6.97;1.47;;;;;;;4.06;100.00;60177.94;5069071;28;20278;-69
2021/12/08 07:25:38;;;;;;;5.07;1.07;;;;;;;4.00;100.00;60174.66;5069178;28;20805;-69
2021/12/08 07:28:05;;;;;;;7.27;1.40;;;;;;;4.03;100.00;60177.84;5069783;28;20336;-70
2021/12/08 07:30:38;;;;;;;9.00;1.20;;;;;;;4.06;100.00;60178.47;5069447;28;20543;-69
2021/12/08 07:33:04;;;;;;;7.00;1.27;;;;;;;4.08;100.00;60183.09;5069686;28;20276;-70
2021/12/08 07:35:36;;;;;;;15.70;2.60;;;;;;;4.04;100.00;60173.84;5069003;28;20641;-70
2021/12/08 07:38:03;;;;;;;10.57;1.60;;;;;;;4.06;100.00;60175.94;5069514;28;20182;-69
2021/12/08 07:40:39;;;;;;;11.50;2.00;;;;;;;4.05;100.00;60179.41;5069280;28;20327;-70
2021/12/08 07:43:11;;;;;;;8.60;1.70;;;;;;;4.00;100.00;60175.19;5069197;28;20967;-70
2021/12/08 07:45:45;;;;;;;7.03;2.50;;;;;;;4.02;100.00;60177.31;5069324;28;20274;-69
2021/12/08 07:48:15;;;;;;;6.53;1.47;;;;;;;3.95;100.00;60167.41;5069600;28;21092;-69
2021/12/08 07:51:05;;;;;;;16.00;1.93;;;;;;;3.96;100.00;60170.47;5068844;28;20223;-69
2021/12/08 07:53:31;;;;;;;10.47;1.70;;;;;;;3.99;100.00;60171.09;5049015;28;20281;-67
2021/12/08 07:56:03;;;;;;;7.23;2.23;;;;;;;3.99;100.00;60173.63;5049337;28;20274;-67
2021/12/08 07:58:29;;;;;;;8.53;2.40;;;;;;;3.97;100.00;60169.53;5048863;28;20099;-67
2021/12/08 08:01:08;;;;;;;3.97;1.27;;;;;;;4.02;100.00;60171.72;5049124;28;20266;-67
2021/12/08 08:03:34;;;;;;;6.90;1.70;;;;;;;3.97;100.00;60168.97;5068839;28;20286;-67
2021/12/08 08:06:03;;;;;;;7.37;2.47;;;;;;;4.00;100.00;60172.69;5069103;28;20646;-67
2021/12/08 08:08:31;;;;;;;10.93;2.10;;;;;;;3.99;100.00;60176.16;5069119;28;20101;-67
2021/12/08 08:11:03;;;;;;;11.00;1.40;;;;;;;3.96;100.00;60167.94;5068917;28;20832;-67
2021/12/08 08:13:30;;;;;;;8.67;1.27;;;;;;;3.95;100.00;60169.41;5068825;28;20269;-67
2021/12/08 08:16:05;;;;;;;12.20;1.60;;;;;;;3.87;100.00;60155.94;5069024;28;20281;-67
2021/12/08 08:18:32;;;;;;;7.00;1.17;;;;;;;3.85;100.00;60159.41;5068469;28;20278;-68
2021/12/08 08:21:01;;;;;;;7.70;1.27;;;;;;;3.87;100.00;60158.44;5068900;28;20261;-66
2021/12/08 08:23:28;;;;;;;12.43;1.67;;;;;;;3.88;100.00;60160.03;5068754;28;20262;-67
2021/12/08 08:25:55;;;;;;;10.33;1.30;;;;;;;3.88;100.00;60160.03;5062763;28;20766;-69
2021/12/08 08:28:21;;;;;;;10.40;1.50;;;;;;;3.96;100.00;60170.47;5059386;28;20278;-69
2021/12/08 08:30:54;;;;;;;15.60;2.10;;;;;;;3.95;100.00;60169.41;5068699;28;20270;-69
2021/12/08 08:33:21;;;;;;;10.30;1.47;;;;;;;3.94;100.00;60168.34;5066542;28;20268;-70
2021/12/08 08:35:54;;;;;;;11.53;1.57;;;;;;;3.95;100.00;60167.41;5068722;28;20272;-70
2021/12/08 08:38:32;;;;;;;9.27;1.27;;;;;;;4.03;100.00;60175.31;5068053;28;20289;-67
2021/12/08 08:41:04;;;;;;;16.80;1.80;;;;;;;4.01;100.00;60173.72;5051854;28;20317;-69
2021/12/08 08:43:30;;;;;;;5.57;1.00;;;;;;;3.97;100.00;60169.53;5065613;28;20288;-69
2021/12/08 08:46:01;;;;;;;12.70;1.50;;;;;;;4.09;100.00;60181.09;5068413;28;20249;-69
2021/12/08 08:48:32;;;;;;;12.77;1.67;;;;;;;4.17;100.00;60192.56;5060659;28;20285;-70
2021/12/08 08:51:05;;;;;;;5.93;1.30;;;;;;;4.25;100.00;60200.47;5048082;28;20277;-69
2021/12/08 08:53:33;;;;;;;8.73;1.10;;;;;;;4.15;100.00;60189.94;5064057;28;20277;-70
2021/12/08 08:56:05;;;;;;;8.20;1.67;;;;;;;4.17;100.00;60190.03;5066357;28;20288;-70
2021/12/08 08:58:33;;;;;;;8.07;1.30;;;;;;;4.17;100.00;60190.03;5067785;28;20289;-70
2021/12/08 09:01:13;;;;;;;8.80;1.23;;;;;;;4.30;100.00;60205.75;5067834;28;20281;-70
2021/12/08 09:03:43;;;;;;;16.87;1.73;;;;;;;4.45;100.00;60212.91;5065807;28;20454;-67
2021/12/08 09:06:19;;;;;;;8.20;0.90;;;;;;;4.55;100.00;60228.50;5066687;28;20250;-67
2021/12/08 09:08:45;;;;;;;10.30;2.10;;;;;;;4.56;100.00;60224.50;5067937;28;20276;-67
2021/12/08 09:11:18;;;;;;;8.27;1.00;;;;;;;4.48;100.00;60216.63;5068116;28;20258;-70
2021/12/08 09:14:03;;;;;;;7.57;1.30;;;;;;;4.46;100.00;60222.06;5067406;28;20342;-69
2021/12/08 09:16:39;;;;;;;14.40;1.57;;;;;;;4.46;100.00;60222.06;5068053;28;20684;-68
2021/12/08 09:19:10;;;;;;;9.80;1.83;;;;;;;4.46;100.00;60219.53;5064291;28;20330;-67
2021/12/08 09:22:01;;;;;;;6.57;1.50;;;;;;;4.56;100.00;60229.56;5047808;28;20964;-67
2021/12/08 09:24:38;;;;;;;5.67;1.20;;;;;;;4.52;100.00;60225.34;5046654;28;20310;-67
2021/12/08 09:27:06;;;;;;;7.03;1.23;;;;;;;4.54;100.00;60227.97;5047856;28;20297;-67
2021/12/08 09:29:43;;;;;;;6.53;1.27;;;;;;;4.62;100.00;60235.88;5052686;28;20285;-67
2021/12/08 09:32:29;;;;;;;11.83;1.20;;;;;;;4.75;100.00;60253.59;5046534;28;20629;-67
2021/12/08 09:34:59;;;;;;;4.07;0.98;;;;;;;4.81;100.00;60254.84;5056531;28;20357;-67
2021/12/08 09:37:30;;;;;;;8.77;1.60;;;;;;;4.91;100.00;60265.41;5066415;28;20040;-67
2021/12/08 09:40:11;;;;;;;9.17;1.10;;;;;;;4.96;100.00;60272.66;5082553;28;20269;-67
2021/12/08 09:42:50;;;;;;;5.80;1.30;;;;;;;5.03;100.00;60277.53;5087339;28;20268;-69
2021/12/08 09:45:56;;;;;;;4.43;1.47;;;;;;;5.16;100.00;60290.69;5086776;28;20264;-67
2021/12/08 09:48:26;;;;;;;7.43;1.30;;;;;;;5.15;100.00;60289.63;5084336;28;20253;-69
2021/12/08 09:50:54;;;;;;;16.33;1.60;;;;;;;5.25;100.00;60305.25;5071666;28;20682;-69
2021/12/08 09:53:20;;;;;;;7.17;1.90;;;;;;;5.19;100.00;60299.44;5066244;28;20724;-69
2021/12/08 09:55:45;;;;;;;8.13;1.23;;;;;;;5.41;100.00;60321.59;5059584;28;20328;-69
2021/12/08 09:58:10;;;;;;;12.33;1.83;;;;;;;5.53;100.00;60329.19;5047803;28;20037;-69
2021/12/08 10:00:40;;;;;;;8.50;1.50;;;;;;;5.60;100.00;60336.03;5066935;28;20068;-69
2021/12/08 10:03:06;;;;;;;5.63;1.40;;;;;;;5.68;100.00;60352.09;5066975;28;20524;-69
2021/12/08 10:05:36;;;;;;;10.23;1.50;;;;;;;5.77;100.00;60358.53;5066232;28;20858;-69
2021/12/08 10:08:04;;;;;;;12.10;2.13;;;;;;;5.75;100.00;60351.34;5050115;28;20274;-68
2021/12/08 10:10:31;;;;;;;9.13;1.30;;;;;;;5.85;100.00;60361.88;5046931;28;20322;-68
2021/12/08 10:12:56;;;;;;;5.93;1.57;;;;;;;5.74;100.00;60355.34;5047065;28;20273;-68
2021/12/08 10:15:23;;;;;;;4.93;1.30;;;;;;;5.59;100.00;60333.00;5046544;28;20278;-68
2021/12/08 10:17:49;;;;;;;10.37;2.03;;;;;;;5.67;100.00;60345.97;5046307;28;20052;-68
2021/12/08 10:20:16;;;;;;;9.53;1.80;;;;;;;5.72;100.00;60348.19;5047111;28;20282;-68
2021/12/08 10:22:45;;;;;;;11.40;1.70;;;;;;;5.76;100.00;60355.44;5047049;28;20112;-68
2021/12/08 10:25:17;;;;;;;15.80;2.10;;;;;;;5.80;100.00;60358.63;5046492;28;20273;-68
2021/12/08 10:28:08;;;;;;;3.37;1.10;;;;;;;5.91;100.00;60368.22;5045702;28;20864;-68
2021/12/08 10:30:48;;;;;;;8.10;1.50;;;;;;;6.15;100.00;60395.06;5060467;28;20795;-68
2021/12/08 10:33:45;;;;;;;6.17;1.20;;;;;;;6.21;100.00;60403.41;5046222;28;20312;-68
2021/12/08 10:38:57;;;;;;;7.90;1.20;;;;;;;6.31;100.00;60410.88;5056285;28;20777;-68
2021/12/08 10:41:23;;;;;;;3.80;1.20;;;;;;;6.36;100.00;60411.63;5065881;28;20273;-68
2021/12/08 10:44:00;;;;;;;6.77;1.30;;;;;;;6.16;100.00;60393.03;5053301;28;20282;-68
2021/12/08 10:46:37;;;;;;;6.30;1.50;;;;;;;6.05;100.00;60381.97;5045923;28;20048;-67
2021/12/08 10:49:17;;;;;;;5.43;1.83;;;;;;;5.99;100.00;60376.16;5046690;28;20265;-68
2021/12/08 10:54:30;;;;;;;3.05;0.82;;;;;;;5.68;100.00;60341.41;5046146;28;20289;-68
2021/12/08 10:56:58;;;;;;;5.37;1.23;;;;;;;5.83;100.00;60359.25;5049586;28;20068;-68
2021/12/08 10:59:48;;;;;;;5.23;1.20;;;;;;;5.75;100.00;60356.41;5050730;28;20270;-67
2021/12/08 11:02:36;;;;;;;8.43;1.83;;;;;;;5.67;100.00;60347.97;5070568;28;20342;-68
2021/12/08 11:05:02;;;;;;;4.87;1.10;;;;;;;5.70;100.00;60346.06;5069198;28;20312;-68
2021/12/08 11:07:27;;;;;;;4.73;1.17;;;;;;;5.88;100.00;60362.00;5064649;28;20801;-68
2021/12/08 11:09:53;;;;;;;3.30;1.37;;;;;;;6.05;100.00;60379.44;5067620;28;20349;-68
2021/12/08 11:12:20;;;;;;;3.30;1.27;;;;;;;6.12;100.00;60389.34;5068703;28;20060;-67
2021/12/08 11:14:48;;;;;;;7.20;1.47;;;;;;;6.10;100.00;60387.22;5067748;28;20124;-67
2021/12/08 11:17:31;;;;;;;9.60;2.03;;;;;;;6.27;100.00;60409.72;5067460;28;20774;-68
2021/12/08 11:20:17;;;;;;;4.07;1.47;;;;;;;6.22;100.00;60402.44;5055707;28;20281;-68
2021/12/08 11:22:44;;;;;;;8.43;1.90;;;;;;;6.36;100.00;60411.63;5051856;28;20368;-67
2021/12/08 11:25:39;;;;;;;6.77;1.70;;;;;;;6.54;100.00;60435.19;5064874;28;20048;-67
2021/12/08 11:28:21;;;;;;;8.77;1.97;;;;;;;6.67;100.00;60443.28;5066410;28;20344;-68
2021/12/08 11:30:47;;;;;;;7.13;1.93;;;;;;;6.64;100.00;60445.19;5061084;28;20270;-67
2021/12/08 11:33:17;;;;;;;7.50;2.20;;;;;;;6.72;100.00;60453.13;5067003;28;20611;-68
2021/12/08 11:35:42;;;;;;;5.13;1.80;;;;;;;6.61;100.00;60440.03;5067299;28;20277;-67
2021/12/08 11:38:08;;;;;;;10.87;2.60;;;;;;;6.72;100.00;60450.59;5067034;28;20288;-67
2021/12/08 11:40:35;;;;;;;7.83;2.87;;;;;;;6.59;100.00;60434.84;5067210;28;20071;-67
2021/12/08 11:43:01;;;;;;;4.37;2.20;;;;;;;6.77;100.00;60461.44;5064714;28;20029;-68
2021/12/08 11:45:26;;;;;;;4.77;1.80;;;;;;;6.98;100.00;60477.53;5061296;28;20311;-68
2021/12/08 11:47:51;;;;;;;6.37;2.07;;;;;;;7.00;100.00;60482.16;5067137;28;20040;-67
2021/12/08 11:50:22;;;;;;;6.23;2.00;;;;;;;6.99;100.00;60478.56;5046795;28;20055;-68
2021/12/08 11:52:53;;;;;;;8.03;2.40;;;;;;;7.04;100.00;60480.78;5063991;28;20497;-67
2021/12/08 11:55:20;;;;;;;4.30;2.10;;;;;;;7.05;100.00;60484.38;5067868;28;20261;-67
2021/12/08 11:57:57;;;;;;;9.00;2.70;;;;;;;7.18;100.00;60498.09;5066857;28;20296;-68
2021/12/08 12:00:30;;;;;;;6.53;2.60;;;;;;;7.39;100.00;60521.78;5066740;28;20323;-68
2021/12/08 12:02:59;;;;;;;10.93;2.50;;;;;;;7.26;100.00;60506.56;5060873;28;20278;-67
2021/12/08 12:05:31;;;;;;;8.87;2.37;;;;;;;7.25;100.00;60507.53;5067161;28;20272;-68
2021/12/08 12:07:57;;;;;;;7.13;2.60;;;;;;;7.41;100.00;60521.38;5065647;28;20313;-67
2021/12/08 12:10:26;;;;;;;12.90;2.60;;;;;;;7.48;100.00;60524.22;5065210;28;20269;-68
2021/12/08 12:12:52;;;;;;;8.77;2.50;;;;;;;7.55;100.00;60538.69;5056185;28;20256;-67
2021/12/08 12:15:22;;;;;;;9.10;2.10;;;;;;;7.49;100.00;60529.81;5065711;28;20645;-67
2021/12/08 12:17:48;;;;;;;10.87;2.70;;;;;;;7.03;100.00;60479.75;5064938;28;20041;-68
2021/12/08 12:20:15;;;;;;;7.70;3.07;;;;;;;7.15;100.00;60492.41;5065249;28;20721;-68
2021/12/08 12:23:07;;;;;;;11.23;3.50;;;;;;;7.77;100.00;60563.97;5065532;28;20131;-68
2021/12/08 12:25:42;;;;;;;10.83;2.20;;;;;;;7.89;100.00;60567.97;5060982;28;20258;-67
2021/12/08 12:28:10;;;;;;;7.07;2.40;;;;;;;7.80;100.00;60561.53;5064910;28;20277;-67